sensor_id;sensor_type;location;lat;lon;timestamp;pressure;altitude;pressure_sealevel;temperature;humidity
57114;BME280;42994;51.606;9.988;2022-12-07T00:01:06;98968.34;;;0.24;100.00
57114;BME280;42994;51.606;9.988;2022-12-07T00:03:33;98974.47;;;0.24;100.00
57114;BME280;42994;51.606;9.988;2022-12-07T00:06:01;98966.56;;;0.24;100.00
57114;BME280;42994;51.606;9.988;2022-12-07T00:08:29;98978.06;;;0.23;100.00
57114;BME280;42994;51.606;9.988;2022-12-07T00:11:00;98963.22;;;0.22;100.00
57114;BME280;42994;51.606;9.988;2022-12-07T00:13:27;98963.94;;;0.24;100.00
57114;BME280;42994;51.606;9.988;2022-12-07T00:15:53;98962.00;;;0.26;100.00
57114;BME280;42994;51.606;9.988;2022-12-07T00:18:20;98962.25;;;0.23;100.00
57114;BME280;42994;51.606;9.988;2022-12-07T00:20:46;98962.25;;;0.23;100.00
57114;BME280;42994;51.606;9.988;2022-12-07T00:23:13;98960.44;;;0.24;100.00
57114;BME280;42994;51.606;9.988;2022-12-07T00:25:41;98949.19;;;0.22;100.00
57114;BME280;42994;51.606;9.988;2022-12-07T00:28:08;98954.47;;;0.22;100.00
57114;BME280;42994;51.606;9.988;2022-12-07T00:30:37;98950.88;;;0.23;100.00
57114;BME280;42994;51.606;9.988;2022-12-07T00:33:03;98944.78;;;0.22;100.00
57114;BME280;42994;51.606;9.988;2022-12-07T00:35:30;98935.88;;;0.23;100.00
57114;BME280;42994;51.606;9.988;2022-12-07T00:37:56;98927.16;;;0.23;100.00
57114;BME280;42994;51.606;9.988;2022-12-07T00:40:23;98929.19;;;0.19;100.00
57114;BME280;42994;51.606;9.988;2022-12-07T00:42:51;98926.69;;;0.17;100.00
57114;BME280;42994;51.606;9.988;2022-12-07T00:45:18;98932.78;;;0.18;100.00
57114;BME280;42994;51.606;9.988;2022-12-07T00:47:44;98926.56;;;0.19;100.00
57114;BME280;42994;51.606;9.988;2022-12-07T00:50:11;98923.81;;;0.21;100.00
57114;BME280;42994;51.606;9.988;2022-12-07T00:52:38;98928.97;;;0.22;100.00
57114;BME280;42994;51.606;9.988;2022-12-07T00:55:05;98927.84;;;0.25;100.00
57114;BME280;42994;51.606;9.988;2022-12-07T00:57:32;98919.25;;;0.23;100.00
57114;BME280;42994;51.606;9.988;2022-12-07T00:59:59;98921.06;;;0.22;100.00
57114;BME280;42994;51.606;9.988;2022-12-07T01:02:26;98913.97;;;0.23;100.00
57114;BME280;42994;51.606;9.988;2022-12-07T01:04:53;98916.03;;;0.19;100.00
57114;BME280;42994;51.606;9.988;2022-12-07T01:07:19;98910.50;;;0.22;100.00
57114;BME280;42994;51.606;9.988;2022-12-07T01:09:46;98913.25;;;0.21;100.00
57114;BME280;42994;51.606;9.988;2022-12-07T01:12:12;98898.16;;;0.23;100.00
57114;BME280;42994;51.606;9.988;2022-12-07T01:14:41;98905.94;;;0.24;100.00
57114;BME280;42994;51.606;9.988;2022-12-07T01:17:09;98901.75;;;0.22;100.00
57114;BME280;42994;51.606;9.988;2022-12-07T01:19:35;98904.25;;;0.23;100.00
57114;BME280;42994;51.606;9.988;2022-12-07T01:22:02;98900.66;;;0.24;100.00
57114;BME280;42994;51.606;9.988;2022-12-07T01:24:29;98900.53;;;0.26;100.00
57114;BME280;42994;51.606;9.988;2022-12-07T01:26:55;98893.59;;;0.25;100.00
57114;BME280;42994;51.606;9.988;2022-12-07T01:29:22;98888.31;;;0.25;100.00
57114;BME280;42994;51.606;9.988;2022-12-07T01:31:49;98902.06;;;0.28;100.00
57114;BME280;42994;51.606;9.988;2022-12-07T01:34:17;98900.25;;;0.29;100.00
57114;BME280;42994;51.606;9.988;2022-12-07T01:36:43;98904.47;;;0.31;100.00
57114;BME280;42994;51.606;9.988;2022-12-07T01:39:10;98897.38;;;0.32;100.00
57114;BME280;42994;51.606;9.988;2022-12-07T01:41:39;98907.22;;;0.30;100.00
57114;BME280;42994;51.606;9.988;2022-12-07T01:44:12;98905.16;;;0.33;100.00
57114;BME280;42994;51.606;9.988;2022-12-07T01:46:40;98901.69;;;0.33;100.00
57114;BME280;42994;51.606;9.988;2022-12-07T01:49:09;98902.81;;;0.40;100.00
57114;BME280;42994;51.606;9.988;2022-12-07T01:51:40;98902.13;;;0.38;100.00
57114;BME280;42994;51.606;9.988;2022-12-07T01:54:08;98895.78;;;0.41;100.00
57114;BME280;42994;51.606;9.988;2022-12-07T01:56:38;98893.13;;;0.41;100.00
57114;BME280;42994;51.606;9.988;2022-12-07T01:59:06;98897.69;;;0.38;100.00
57114;BME280;42994;51.606;9.988;2022-12-07T02:01:34;98900.19;;;0.40;100.00
57114;BME280;42994;51.606;9.988;2022-12-07T02:04:01;98903.81;;;0.39;100.00
57114;BME280;42994;51.606;9.988;2022-12-07T02:06:28;98893.00;;;0.42;100.00
57114;BME280;42994;51.606;9.988;2022-12-07T02:08:56;98902.56;;;0.43;100.00
57114;BME280;42994;51.606;9.988;2022-12-07T02:11:23;98897.44;;;0.42;100.00
57114;BME280;42994;51.606;9.988;2022-12-07T02:13:50;98886.03;;;0.41;100.00
57114;BME280;42994;51.606;9.988;2022-12-07T02:16:25;98881.34;;;0.45;100.00
57114;BME280;42994;51.606;9.988;2022-12-07T02:19:24;98868.28;;;0.43;100.00
57114;BME280;42994;51.606;9.988;2022-12-07T02:22:00;98864.41;;;0.47;100.00
57114;BME280;42994;51.606;9.988;2022-12-07T02:24:44;98873.75;;;0.51;100.00
57114;BME280;42994;51.606;9.988;2022-12-07T02:27:38;98864.16;;;0.50;100.00
57114;BME280;42994;51.606;9.988;2022-12-07T02:30:12;98867.78;;;0.49;100.00
57114;BME280;42994;51.606;9.988;2022-12-07T02:32:43;98862.50;;;0.49;100.00
57114;BME280;42994;51.606;9.988;2022-12-07T02:35:14;98862.22;;;0.52;100.00
57114;BME280;42994;51.606;9.988;2022-12-07T02:37:51;98867.25;;;0.55;100.00
57114;BME280;42994;51.606;9.988;2022-12-07T02:40:25;98862.94;;;0.54;100.00
57114;BME280;42994;51.606;9.988;2022-12-07T02:42:58;98867.94;;;0.57;100.00
57114;BME280;42994;51.606;9.988;2022-12-07T02:45:30;98864.63;;;0.55;100.00
57114;BME280;42994;51.606;9.988;2022-12-07T02:47:59;98863.63;;;0.56;100.00
57114;BME280;42994;51.606;9.988;2022-12-07T02:50:27;98865.31;;;0.57;100.00
57114;BME280;42994;51.606;9.988;2022-12-07T02:52:54;98860.03;;;0.57;100.00
57114;BME280;42994;51.606;9.988;2022-12-07T02:55:26;98854.88;;;0.56;100.00
57114;BME280;42994;51.606;9.988;2022-12-07T02:58:06;98853.38;;;0.53;100.00
57114;BME280;42994;51.606;9.988;2022-12-07T03:00:45;98846.72;;;0.59;100.00
57114;BME280;42994;51.606;9.988;2022-12-07T03:03:15;98856.44;;;0.59;100.00
57114;BME280;42994;51.606;9.988;2022-12-07T03:05:55;98846.59;;;0.61;100.00
57114;BME280;42994;51.606;9.988;2022-12-07T03:08:28;98847.56;;;0.60;100.00
57114;BME280;42994;51.606;9.988;2022-12-07T03:10:59;98847.56;;;0.60;100.00
57114;BME280;42994;51.606;9.988;2022-12-07T03:13:31;98842.03;;;0.63;100.00
57114;BME280;42994;51.606;9.988;2022-12-07T03:16:02;98848.13;;;0.63;100.00
57114;BME280;42994;51.606;9.988;2022-12-07T03:18:34;98840.63;;;0.59;100.00
57114;BME280;42994;51.606;9.988;2022-12-07T03:21:04;98843.25;;;0.59;100.00
57114;BME280;42994;51.606;9.988;2022-12-07T03:23:34;98846.31;;;0.64;100.00
57114;BME280;42994;51.606;9.988;2022-12-07T03:26:03;98841.47;;;0.69;100.00
57114;BME280;42994;51.606;9.988;2022-12-07T03:28:35;98850.63;;;0.65;100.00
57114;BME280;42994;51.606;9.988;2022-12-07T03:31:08;98849.53;;;0.67;100.00
57114;BME280;42994;51.606;9.988;2022-12-07T03:33:40;98844.41;;;0.66;100.00
57114;BME280;42994;51.606;9.988;2022-12-07T03:36:12;98833.97;;;0.64;100.00
57114;BME280;42994;51.606;9.988;2022-12-07T03:38:44;98836.50;;;0.66;100.00
57114;BME280;42994;51.606;9.988;2022-12-07T03:41:16;98844.56;;;0.74;100.00
57114;BME280;42994;51.606;9.988;2022-12-07T03:43:45;98844.00;;;0.70;100.00
57114;BME280;42994;51.606;9.988;2022-12-07T03:46:19;98844.44;;;0.75;100.00
57114;BME280;42994;51.606;9.988;2022-12-07T03:48:55;98844.44;;;0.75;100.00
57114;BME280;42994;51.606;9.988;2022-12-07T03:51:28;98842.09;;;0.82;100.00
57114;BME280;42994;51.606;9.988;2022-12-07T03:54:05;98842.09;;;0.82;100.00
57114;BME280;42994;51.606;9.988;2022-12-07T03:56:35;98841.69;;;0.87;100.00
57114;BME280;42994;51.606;9.988;2022-12-07T03:59:03;98844.44;;;0.85;100.00
57114;BME280;42994;51.606;9.988;2022-12-07T04:01:31;98836.28;;;0.88;100.00
57114;BME280;42994;51.606;9.988;2022-12-07T04:03:58;98854.63;;;0.90;100.00
57114;BME280;42994;51.606;9.988;2022-12-07T04:06:24;98850.03;;;0.92;100.00
57114;BME280;42994;51.606;9.988;2022-12-07T04:08:51;98842.94;;;0.92;100.00
57114;BME280;42994;51.606;9.988;2022-12-07T04:11:18;98840.06;;;0.95;100.00
57114;BME280;42994;51.606;9.988;2022-12-07T04:13:44;98848.78;;;0.96;100.00
57114;BME280;42994;51.606;9.988;2022-12-07T04:16:28;98843.53;;;0.96;100.00
57114;BME280;42994;51.606;9.988;2022-12-07T04:18:56;98842.84;;;1.04;100.00
57114;BME280;42994;51.606;9.988;2022-12-07T04:21:23;98830.75;;;1.01;100.00
57114;BME280;42994;51.606;9.988;2022-12-07T04:23:50;98842.44;;;0.99;100.00
57114;BME280;42994;51.606;9.988;2022-12-07T04:26:16;98830.75;;;1.01;100.00
57114;BME280;42994;51.606;9.988;2022-12-07T04:28:43;98835.91;;;1.03;100.00
57114;BME280;42994;51.606;9.988;2022-12-07T04:31:10;98837.16;;;0.99;100.00
57114;BME280;42994;51.606;9.988;2022-12-07T04:33:36;98841.00;;;0.94;100.00
57114;BME280;42994;51.606;9.988;2022-12-07T04:36:05;98847.97;;;0.95;100.00
57114;BME280;42994;51.606;9.988;2022-12-07T04:38:32;98846.59;;;1.01;100.00
57114;BME280;42994;51.606;9.988;2022-12-07T04:41:04;98845.19;;;0.97;100.00
57114;BME280;42994;51.606;9.988;2022-12-07T04:43:31;98842.69;;;0.95;100.00
57114;BME280;42994;51.606;9.988;2022-12-07T04:45:57;98845.06;;;0.99;100.00
57114;BME280;42994;51.606;9.988;2022-12-07T04:48:24;98848.22;;;0.92;100.00
57114;BME280;42994;51.606;9.988;2022-12-07T04:50:50;98838.50;;;0.93;100.00
57114;BME280;42994;51.606;9.988;2022-12-07T04:53:19;98840.56;;;0.89;100.00
57114;BME280;42994;51.606;9.988;2022-12-07T04:55:45;98836.44;;;0.96;100.00
57114;BME280;42994;51.606;9.988;2022-12-07T04:58:13;98835.28;;;0.89;100.00
57114;BME280;42994;51.606;9.988;2022-12-07T05:00:40;98837.41;;;0.95;100.00
57114;BME280;42994;51.606;9.988;2022-12-07T05:03:06;98837.28;;;0.97;100.00
57114;BME280;42994;51.606;9.988;2022-12-07T05:05:33;98829.50;;;0.95;100.00
57114;BME280;42994;51.606;9.988;2022-12-07T05:07:59;98833.66;;;0.98;100.00
57114;BME280;42994;51.606;9.988;2022-12-07T05:10:27;98837.41;;;0.95;100.00
57114;BME280;42994;51.606;9.988;2022-12-07T05:12:54;98839.78;;;0.99;100.00
57114;BME280;42994;51.606;9.988;2022-12-07T05:15:20;98837.84;;;1.01;100.00
57114;BME280;42994;51.606;9.988;2022-12-07T05:17:47;98831.34;;;1.14;100.00
57114;BME280;42994;51.606;9.988;2022-12-07T05:20:14;98823.97;;;1.08;100.00
57114;BME280;42994;51.606;9.988;2022-12-07T05:22:40;98832.72;;;1.09;100.00
57114;BME280;42994;51.606;9.988;2022-12-07T05:25:08;98836.03;;;1.11;100.00
57114;BME280;42994;51.606;9.988;2022-12-07T05:27:36;98840.50;;;1.10;100.00
57114;BME280;42994;51.606;9.988;2022-12-07T05:30:03;98842.00;;;1.03;100.00
57114;BME280;42994;51.606;9.988;2022-12-07T05:32:30;98835.66;;;1.15;100.00
57114;BME280;42994;51.606;9.988;2022-12-07T05:34:57;98852.06;;;1.19;100.00
57114;BME280;42994;51.606;9.988;2022-12-07T05:37:23;98838.84;;;1.19;100.00
57114;BME280;42994;51.606;9.988;2022-12-07T05:39:50;98837.03;;;1.20;100.00
57114;BME280;42994;51.606;9.988;2022-12-07T05:42:17;98842.19;;;1.21;100.00
57114;BME280;42994;51.606;9.988;2022-12-07T05:44:46;98829.81;;;1.22;100.00
57114;BME280;42994;51.606;9.988;2022-12-07T05:47:14;98840.25;;;1.23;100.00
57114;BME280;42994;51.606;9.988;2022-12-07T05:49:41;98843.59;;;1.35;100.00
57114;BME280;42994;51.606;9.988;2022-12-07T05:52:07;98844.00;;;1.30;100.00
57114;BME280;42994;51.606;9.988;2022-12-07T05:54:34;98838.03;;;1.28;100.00
57114;BME280;42994;51.606;9.988;2022-12-07T05:57:01;98844.00;;;1.30;100.00
57114;BME280;42994;51.606;9.988;2022-12-07T05:59:27;98831.06;;;1.27;100.00
57114;BME280;42994;51.606;9.988;2022-12-07T06:01:57;98826.91;;;1.34;100.00
57114;BME280;42994;51.606;9.988;2022-12-07T06:04:25;98830.81;;;1.30;100.00
57114;BME280;42994;51.606;9.988;2022-12-07T06:06:52;98818.44;;;1.31;100.00
57114;BME280;42994;51.606;9.988;2022-12-07T06:09:19;98822.63;;;1.33;100.00
57114;BME280;42994;51.606;9.988;2022-12-07T06:11:46;98829.00;;;1.31;100.00
57114;BME280;42994;51.606;9.988;2022-12-07T06:14:31;98825.28;;;1.33;100.00
57114;BME280;42994;51.606;9.988;2022-12-07T06:16:59;98822.75;;;1.32;100.00
57114;BME280;42994;51.606;9.988;2022-12-07T06:19:26;98819.81;;;1.35;100.00
57114;BME280;42994;51.606;9.988;2022-12-07T06:21:53;98825.66;;;1.39;100.00
57114;BME280;42994;51.606;9.988;2022-12-07T06:24:20;98821.09;;;1.41;100.00
57114;BME280;42994;51.606;9.988;2022-12-07T06:26:46;98824.69;;;1.40;100.00
57114;BME280;42994;51.606;9.988;2022-12-07T06:29:13;98819.41;;;1.40;100.00
57114;BME280;42994;51.606;9.988;2022-12-07T06:31:40;98811.75;;;1.37;100.00
57114;BME280;42994;51.606;9.988;2022-12-07T06:34:12;98819.69;;;1.37;100.00
57114;BME280;42994;51.606;9.988;2022-12-07T06:36:39;98813.31;;;1.39;100.00
57114;BME280;42994;51.606;9.988;2022-12-07T06:39:06;98815.81;;;1.41;100.00
57114;BME280;42994;51.606;9.988;2022-12-07T06:41:34;98814.00;;;1.41;100.00
57114;BME280;42994;51.606;9.988;2022-12-07T06:44:01;98814.69;;;1.43;100.00
57114;BME280;42994;51.606;9.988;2022-12-07T06:46:27;98821.94;;;1.41;100.00
57114;BME280;42994;51.606;9.988;2022-12-07T06:51:41;98820.38;;;1.39;100.00
57114;BME280;42994;51.606;9.988;2022-12-07T06:54:09;98830.69;;;1.42;100.00
57114;BME280;42994;51.606;9.988;2022-12-07T06:56:35;98818.47;;;1.41;100.00
57114;BME280;42994;51.606;9.988;2022-12-07T06:59:02;98822.19;;;1.38;100.00
57114;BME280;42994;51.606;9.988;2022-12-07T07:01:30;98824.00;;;1.38;100.00
57114;BME280;42994;51.606;9.988;2022-12-07T07:03:57;98825.28;;;1.33;100.00
57114;BME280;42994;51.606;9.988;2022-12-07T07:06:24;98824.97;;;1.37;100.00
57114;BME280;42994;51.606;9.988;2022-12-07T07:08:52;98821.50;;;1.36;100.00
57114;BME280;42994;51.606;9.988;2022-12-07T07:11:19;98831.50;;;1.32;100.00
57114;BME280;42994;51.606;9.988;2022-12-07T07:13:45;98829.69;;;1.33;100.00
57114;BME280;42994;51.606;9.988;2022-12-07T07:16:12;98828.59;;;1.36;100.00
57114;BME280;42994;51.606;9.988;2022-12-07T07:18:39;98825.28;;;1.33;100.00
57114;BME280;42994;51.606;9.988;2022-12-07T07:21:05;98829.97;;;1.30;100.00
57114;BME280;42994;51.606;9.988;2022-12-07T07:23:32;98832.75;;;1.28;100.00
57114;BME280;42994;51.606;9.988;2022-12-07T07:26:00;98834.97;;;1.33;100.00
57114;BME280;42994;51.606;9.988;2022-12-07T07:28:27;98835.97;;;1.32;100.00
57114;BME280;42994;51.606;9.988;2022-12-07T07:30:53;98835.25;;;1.30;100.00
57114;BME280;42994;51.606;9.988;2022-12-07T07:33:20;98838.59;;;1.32;100.00
57114;BME280;42994;51.606;9.988;2022-12-07T07:35:47;98831.50;;;1.32;100.00
57114;BME280;42994;51.606;9.988;2022-12-07T07:38:13;98828.88;;;1.32;100.00
57114;BME280;42994;51.606;9.988;2022-12-07T07:40:40;98834.16;;;1.32;100.00
57114;BME280;42994;51.606;9.988;2022-12-07T07:43:08;98826.91;;;1.34;100.00
57114;BME280;42994;51.606;9.988;2022-12-07T07:45:35;98832.75;;;1.38;100.00
57114;BME280;42994;51.606;9.988;2022-12-07T07:48:02;98837.91;;;1.40;100.00
57114;BME280;42994;51.606;9.988;2022-12-07T07:50:29;98829.59;;;1.44;100.00
57114;BME280;42994;51.606;9.988;2022-12-07T07:52:56;98835.97;;;1.42;100.00
57114;BME280;42994;51.606;9.988;2022-12-07T07:55:23;98833.88;;;1.45;100.00
57114;BME280;42994;51.606;9.988;2022-12-07T07:57:50;98839.44;;;1.42;100.00
57114;BME280;42994;51.606;9.988;2022-12-07T08:00:18;98830.69;;;1.42;100.00
57114;BME280;42994;51.606;9.988;2022-12-07T08:02:45;98827.22;;;1.41;100.00
57114;BME280;42994;51.606;9.988;2022-12-07T08:05:13;98835.97;;;1.42;100.00
57114;BME280;42994;51.606;9.988;2022-12-07T08:07:40;98834.31;;;1.41;100.00
57114;BME280;42994;51.606;9.988;2022-12-07T08:10:08;98828.88;;;1.42;100.00
57114;BME280;42994;51.606;9.988;2022-12-07T08:12:36;98844.88;;;1.41;100.00
57114;BME280;42994;51.606;9.988;2022-12-07T08:15:26;98842.78;;;1.44;100.00
57114;BME280;42994;51.606;9.988;2022-12-07T08:17:53;98837.66;;;1.43;100.00
57114;BME280;42994;51.606;9.988;2022-12-07T08:20:20;98839.16;;;1.45;100.00
57114;BME280;42994;51.606;9.988;2022-12-07T08:22:47;98847.78;;;1.47;100.00
57114;BME280;42994;51.606;9.988;2022-12-07T08:25:14;98838.34;;;1.45;100.00
57114;BME280;42994;51.606;9.988;2022-12-07T08:27:41;98849.03;;;1.43;100.00
57114;BME280;42994;51.606;9.988;2022-12-07T08:30:08;98841.25;;;1.42;100.00
57114;BME280;42994;51.606;9.988;2022-12-07T08:32:36;98843.88;;;1.42;100.00
57114;BME280;42994;51.606;9.988;2022-12-07T08:35:03;98842.06;;;1.42;100.00
57114;BME280;42994;51.606;9.988;2022-12-07T08:37:31;98847.50;;;1.41;100.00
57114;BME280;42994;51.606;9.988;2022-12-07T08:39:57;98846.66;;;1.40;100.00
57114;BME280;42994;51.606;9.988;2022-12-07T08:42:24;98854.44;;;1.42;100.00
57114;BME280;42994;51.606;9.988;2022-12-07T08:44:55;98851.81;;;1.42;100.00
57114;BME280;42994;51.606;9.988;2022-12-07T08:47:21;98846.53;;;1.42;100.00
57114;BME280;42994;51.606;9.988;2022-12-07T08:49:50;98853.06;;;1.38;100.00
57114;BME280;42994;51.606;9.988;2022-12-07T08:52:18;98855.56;;;1.39;100.00
57114;BME280;42994;51.606;9.988;2022-12-07T08:54:45;98848.47;;;1.40;100.00
57114;BME280;42994;51.606;9.988;2022-12-07T08:57:12;98853.75;;;1.40;100.00
57114;BME280;42994;51.606;9.988;2022-12-07T08:59:38;98846.53;;;1.32;100.00
57114;BME280;42994;51.606;9.988;2022-12-07T09:02:05;98850.13;;;1.31;100.00
57114;BME280;42994;51.606;9.988;2022-12-07T09:04:32;98851.38;;;1.27;100.00
57114;BME280;42994;51.606;9.988;2022-12-07T09:07:00;98857.47;;;1.27;100.00
57114;BME280;42994;51.606;9.988;2022-12-07T09:09:27;98844.56;;;1.24;100.00
57114;BME280;42994;51.606;9.988;2022-12-07T09:11:53;98840.94;;;1.25;100.00
57114;BME280;42994;51.606;9.988;2022-12-07T09:14:22;98845.53;;;1.23;100.00
57114;BME280;42994;51.606;9.988;2022-12-07T09:16:48;98843.72;;;1.24;100.00
57114;BME280;42994;51.606;9.988;2022-12-07T09:19:15;98840.25;;;1.23;100.00
57114;BME280;42994;51.606;9.988;2022-12-07T09:21:42;98856.09;;;1.23;100.00
57114;BME280;42994;51.606;9.988;2022-12-07T09:24:11;98844.56;;;1.24;100.00
57114;BME280;42994;51.606;9.988;2022-12-07T09:26:38;98849.56;;;1.27;100.00
57114;BME280;42994;51.606;9.988;2022-12-07T09:29:05;98851.81;;;1.32;100.00
57114;BME280;42994;51.606;9.988;2022-12-07T09:31:32;98847.09;;;1.36;100.00
57114;BME280;42994;51.606;9.988;2022-12-07T09:34:00;98849.31;;;1.40;100.00
57114;BME280;42994;51.606;9.988;2022-12-07T09:36:27;98851.53;;;1.45;100.00
57114;BME280;42994;51.606;9.988;2022-12-07T09:38:54;98844.31;;;1.47;100.00
57114;BME280;42994;51.606;9.988;2022-12-07T09:41:24;98846.00;;;1.48;100.00
57114;BME280;42994;51.606;9.988;2022-12-07T09:43:52;98838.75;;;1.50;100.00
57114;BME280;42994;51.606;9.988;2022-12-07T09:46:20;98846.38;;;1.53;100.00
57114;BME280;42994;51.606;9.988;2022-12-07T09:48:48;98852.53;;;1.53;100.00
57114;BME280;42994;51.606;9.988;2022-12-07T09:51:17;98850.44;;;1.57;100.00
57114;BME280;42994;51.606;9.988;2022-12-07T09:53:46;98848.91;;;1.54;100.00
57114;BME280;42994;51.606;9.988;2022-12-07T09:56:14;98845.16;;;1.57;100.00
57114;BME280;42994;51.606;9.988;2022-12-07T09:58:43;98844.44;;;1.55;100.00
57114;BME280;42994;51.606;9.988;2022-12-07T10:01:13;98847.09;;;1.55;100.00
57114;BME280;42994;51.606;9.988;2022-12-07T10:03:44;98842.78;;;1.54;100.00
57114;BME280;42994;51.606;9.988;2022-12-07T10:06:12;98840.00;;;1.56;100.00
57114;BME280;42994;51.606;9.988;2022-12-07T10:08:39;98833.75;;;1.57;100.00
57114;BME280;42994;51.606;9.988;2022-12-07T10:11:06;98839.03;;;1.57;100.00
57114;BME280;42994;51.606;9.988;2022-12-07T10:13:38;98833.59;;;1.58;100.00
57114;BME280;42994;51.606;9.988;2022-12-07T10:16:32;98830.00;;;1.59;100.00
57114;BME280;42994;51.606;9.988;2022-12-07T10:18:54;98828.31;;;1.58;100.00
57114;BME280;42994;51.606;9.988;2022-12-07T10:21:22;98842.53;;;1.57;100.00
57114;BME280;42994;51.606;9.988;2022-12-07T10:24:01;98827.50;;;1.58;100.00
57114;BME280;42994;51.606;9.988;2022-12-07T10:26:33;98829.00;;;1.60;100.00
57114;BME280;42994;51.606;9.988;2022-12-07T10:29:12;98820.25;;;1.60;100.00
57114;BME280;42994;51.606;9.988;2022-12-07T10:31:42;98824.72;;;1.59;100.00
57114;BME280;42994;51.606;9.988;2022-12-07T10:34:20;98831.97;;;1.57;100.00
57114;BME280;42994;51.606;9.988;2022-12-07T10:36:49;98828.31;;;1.58;100.00
57114;BME280;42994;51.606;9.988;2022-12-07T10:39:18;98824.72;;;1.59;100.00
57114;BME280;42994;51.606;9.988;2022-12-07T10:41:55;98811.22;;;1.62;100.00
57114;BME280;42994;51.606;9.988;2022-12-07T10:44:27;98816.66;;;1.61;100.00
57114;BME280;42994;51.606;9.988;2022-12-07T10:47:03;98815.81;;;1.60;100.00
57114;BME280;42994;51.606;9.988;2022-12-07T10:49:48;98815.81;;;1.60;100.00
57114;BME280;42994;51.606;9.988;2022-12-07T10:52:29;98818.31;;;1.62;100.00
57114;BME280;42994;51.606;9.988;2022-12-07T10:55:09;98829.31;;;1.57;100.00
57114;BME280;42994;51.606;9.988;2022-12-07T10:57:47;98822.47;;;1.54;100.00
57114;BME280;42994;51.606;9.988;2022-12-07T11:00:19;98819.97;;;1.53;100.00
57114;BME280;42994;51.606;9.988;2022-12-07T11:03:21;98812.06;;;1.53;100.00
57114;BME280;42994;51.606;9.988;2022-12-07T11:05:53;98811.91;;;1.54;100.00
57114;BME280;42994;51.606;9.988;2022-12-07T11:08:36;98815.69;;;1.52;100.00
57114;BME280;42994;51.606;9.988;2022-12-07T11:11:09;98807.88;;;1.50;100.00
57114;BME280;42994;51.606;9.988;2022-12-07T11:13:44;98800.78;;;1.51;100.00
57114;BME280;42994;51.606;9.988;2022-12-07T11:16:21;98813.03;;;1.52;100.00
57114;BME280;42994;51.606;9.988;2022-12-07T11:21:57;98803.56;;;1.49;100.00
57114;BME280;42994;51.606;9.988;2022-12-07T11:24:29;98795.81;;;1.48;100.00
57114;BME280;42994;51.606;9.988;2022-12-07T11:27:06;98806.06;;;1.51;100.00
57114;BME280;42994;51.606;9.988;2022-12-07T11:29:54;98796.34;;;1.51;100.00
57114;BME280;42994;51.606;9.988;2022-12-07T11:32:40;98791.91;;;1.52;100.00
57114;BME280;42994;51.606;9.988;2022-12-07T11:35:12;98787.31;;;1.54;100.00
57114;BME280;42994;51.606;9.988;2022-12-07T11:37:42;98786.88;;;1.59;100.00
57114;BME280;42994;51.606;9.988;2022-12-07T11:40:17;98784.97;;;1.61;100.00
57114;BME280;42994;51.606;9.988;2022-12-07T11:42:50;98787.16;;;1.65;100.00
57114;BME280;42994;51.606;9.988;2022-12-07T11:45:21;98790.63;;;1.66;100.00
57114;BME280;42994;51.606;9.988;2022-12-07T11:47:54;98785.50;;;1.64;100.00
57114;BME280;42994;51.606;9.988;2022-12-07T11:50:27;98774.09;;;1.64;100.00
57114;BME280;42994;51.606;9.988;2022-12-07T11:52:58;98771.19;;;1.67;100.00
57114;BME280;42994;51.606;9.988;2022-12-07T11:55:30;98768.41;;;1.68;100.00
57114;BME280;42994;51.606;9.988;2022-12-07T11:58:03;98765.75;;;1.68;100.00
57114;BME280;42994;51.606;9.988;2022-12-07T12:00:30;98767.41;;;1.69;100.00
57114;BME280;42994;51.606;9.988;2022-12-07T12:03:02;98764.75;;;1.69;100.00
57114;BME280;42994;51.606;9.988;2022-12-07T12:05:30;98763.94;;;1.69;100.00
57114;BME280;42994;51.606;9.988;2022-12-07T12:08:10;98762.25;;;1.68;100.00
57114;BME280;42994;51.606;9.988;2022-12-07T12:10:51;98764.75;;;1.69;100.00
57114;BME280;42994;51.606;9.988;2022-12-07T12:13:46;98760.16;;;1.71;100.00
57114;BME280;42994;51.606;9.988;2022-12-07T12:16:36;98767.13;;;1.72;100.00
57114;BME280;42994;51.606;9.988;2022-12-07T12:19:19;98756.84;;;1.69;100.00
57114;BME280;42994;51.606;9.988;2022-12-07T12:21:54;98760.16;;;1.71;100.00
57114;BME280;42994;51.606;9.988;2022-12-07T12:24:26;98758.50;;;1.70;100.00
57114;BME280;42994;51.606;9.988;2022-12-07T12:27:01;98752.25;;;1.71;100.00
57114;BME280;42994;51.606;9.988;2022-12-07T12:29:32;98749.59;;;1.71;100.00
57114;BME280;42994;51.606;9.988;2022-12-07T12:32:13;98752.09;;;1.73;100.00
57114;BME280;42994;51.606;9.988;2022-12-07T12:34:42;98739.88;;;1.72;100.00
57114;BME280;42994;51.606;9.988;2022-12-07T12:37:40;98738.75;;;1.75;100.00
57114;BME280;42994;51.606;9.988;2022-12-07T12:40:43;98745.84;;;1.74;100.00
57114;BME280;42994;51.606;9.988;2022-12-07T12:43:46;98746.69;;;1.75;100.00
57114;BME280;42994;51.606;9.988;2022-12-07T12:46:38;98737.09;;;1.73;100.00
57114;BME280;42994;51.606;9.988;2022-12-07T12:52:46;98730.13;;;1.72;100.00
57114;BME280;42994;51.606;9.988;2022-12-07T12:55:29;98717.75;;;1.73;100.00
57114;BME280;42994;51.606;9.988;2022-12-07T12:58:36;98707.31;;;1.71;100.00
57114;BME280;42994;51.606;9.988;2022-12-07T13:04:34;98713.59;;;1.70;100.00
57114;BME280;42994;51.606;9.988;2022-12-07T13:07:03;98708.31;;;1.70;100.00
57114;BME280;42994;51.606;9.988;2022-12-07T13:09:33;98710.13;;;1.70;100.00
57114;BME280;42994;51.606;9.988;2022-12-07T13:12:04;98713.59;;;1.70;100.00
57114;BME280;42994;51.606;9.988;2022-12-07T13:14:51;98710.28;;;1.68;100.00
57114;BME280;42994;51.606;9.988;2022-12-07T13:20:50;98709.84;;;1.63;100.00
57114;BME280;42994;51.606;9.988;2022-12-07T13:23:31;98712.38;;;1.65;100.00
57114;BME280;42994;51.606;9.988;2022-12-07T13:26:13;98708.91;;;1.64;100.00
57114;BME280;42994;51.606;9.988;2022-12-07T13:28:42;98709.16;;;1.61;100.00
57114;BME280;42994;51.606;9.988;2022-12-07T13:31:19;98704.56;;;1.63;100.00
57114;BME280;42994;51.606;9.988;2022-12-07T13:33:48;98703.06;;;1.61;100.00